createdAt,value
2023-01-11T00:01:02.675Z,96529.00
2023-01-11T00:03:31.040Z,96517.81
2023-01-11T00:05:59.975Z,96527.31
2023-01-11T00:08:28.460Z,96523.38
2023-01-11T00:10:57.444Z,96525.09
2023-01-11T00:13:24.972Z,96520.78
2023-01-11T00:15:52.532Z,96511.50
2023-01-11T00:18:20.043Z,96512.94
2023-01-11T00:20:47.576Z,96502.31
2023-01-11T00:23:15.130Z,96499.13
2023-01-11T00:25:42.607Z,96507.38
2023-01-11T00:28:11.428Z,96505.09
2023-01-11T00:30:38.939Z,96503.19
2023-01-11T00:33:06.442Z,96493.09
2023-01-11T00:35:34.117Z,96492.16
2023-01-11T00:38:01.662Z,96487.00
2023-01-11T00:40:29.146Z,96481.63
2023-01-11T00:43:13.474Z,96482.00
2023-01-11T00:45:59.970Z,96487.03
2023-01-11T00:48:27.531Z,96487.16
2023-01-11T00:50:57.962Z,96488.50
2023-01-11T00:53:25.472Z,96478.09
2023-01-11T00:55:52.959Z,96488.59
2023-01-11T00:58:20.494Z,96481.44
2023-01-11T01:00:49.351Z,96479.78
2023-01-11T01:03:16.868Z,96470.22
2023-01-11T01:05:44.353Z,96483.00
2023-01-11T01:08:11.829Z,96474.78
2023-01-11T01:10:39.340Z,96481.91
2023-01-11T01:13:24.588Z,96476.41
2023-01-11T01:15:59.095Z,96469.75
2023-01-11T01:18:26.607Z,96472.38
2023-01-11T01:20:54.108Z,96463.28
2023-01-11T01:23:21.578Z,96459.13
2023-01-11T01:25:49.123Z,96462.94
2023-01-11T01:28:18.775Z,96467.19
2023-01-11T01:30:51.204Z,96456.31
2023-01-11T01:33:20.259Z,96457.97
2023-01-11T01:35:47.725Z,96449.81
2023-01-11T01:38:15.407Z,96458.81
2023-01-11T01:40:43.866Z,96449.16
2023-01-11T01:43:12.853Z,96454.25
2023-01-11T01:45:41.406Z,96461.34
2023-01-11T01:48:11.363Z,96457.47
2023-01-11T01:50:44.553Z,96460.69
2023-01-11T01:53:15.590Z,96462.56
2023-01-11T01:55:48.870Z,96459.84
2023-01-11T01:58:20.018Z,96457.97
2023-01-11T02:00:48.097Z,96449.09
2023-01-11T02:03:20.250Z,96448.03
2023-01-11T02:05:49.766Z,96434.75
2023-01-11T02:08:23.808Z,96442.94
2023-01-11T02:10:52.956Z,96441.38
2023-01-11T02:13:21.706Z,96426.22
2023-01-11T02:16:07.385Z,96431.69
2023-01-11T02:18:35.620Z,96426.63
2023-01-11T02:21:20.790Z,96424.34
2023-01-11T02:24:29.728Z,96415.97
2023-01-11T02:27:29.412Z,96418.38
2023-01-11T02:30:08.900Z,96418.00
2023-01-11T02:32:46.756Z,96417.22
2023-01-11T02:35:21.543Z,96416.56
2023-01-11T02:38:00.296Z,96424.84
2023-01-11T02:40:38.163Z,96415.41
2023-01-11T02:43:29.863Z,96411.47
2023-01-11T02:46:03.033Z,96405.75
2023-01-11T02:48:36.024Z,96396.09
2023-01-11T02:51:09.405Z,96406.34
2023-01-11T02:53:40.172Z,96411.72
2023-01-11T02:56:12.339Z,96403.09
2023-01-11T02:58:43.186Z,96403.34
2023-01-11T03:01:13.594Z,96407.41
2023-01-11T03:03:41.290Z,96397.66
2023-01-11T03:06:16.149Z,96401.88
2023-01-11T03:09:12.734Z,96395.94
2023-01-11T03:12:11.458Z,96395.59
2023-01-11T03:14:48.628Z,96404.03
2023-01-11T03:17:27.689Z,96409.31
2023-01-11T03:20:02.518Z,96395.28
2023-01-11T03:22:37.260Z,96401.13
2023-01-11T03:25:14.997Z,96393.88
2023-01-11T03:27:51.544Z,96391.16
2023-01-11T03:30:29.874Z,96384.06
2023-01-11T03:33:04.691Z,96373.34
2023-01-11T03:35:39.465Z,96372.69
2023-01-11T03:38:11.315Z,96377.16
2023-01-11T03:40:42.188Z,96371.44
2023-01-11T03:43:12.576Z,96362.66
2023-01-11T03:45:46.468Z,96370.94
2023-01-11T03:48:18.921Z,96366.53
2023-01-11T03:50:48.513Z,96368.44
2023-01-11T03:53:19.189Z,96362.09
2023-01-11T03:55:49.856Z,96374.06
2023-01-11T03:58:17.461Z,96362.03
2023-01-11T04:00:45.418Z,96362.44
2023-01-11T04:03:14.624Z,96355.53
2023-01-11T04:05:48.882Z,96357.34
2023-01-11T04:08:16.411Z,96358.63
2023-01-11T04:10:43.917Z,96347.56
2023-01-11T04:13:11.415Z,96348.59
2023-01-11T04:15:38.931Z,96347.06
2023-01-11T04:18:07.199Z,96351.81
2023-01-11T04:20:36.046Z,96342.59
2023-01-11T04:23:06.569Z,96338.09
2023-01-11T04:25:34.139Z,96340.22
2023-01-11T04:28:01.680Z,96337.50
2023-01-11T04:30:29.185Z,96329.66
2023-01-11T04:32:58.405Z,96333.91
2023-01-11T04:35:26.066Z,96334.63
2023-01-11T04:37:54.827Z,96339.19
2023-01-11T04:40:25.429Z,96343.09
2023-01-11T04:42:52.018Z,96339.13
2023-01-11T04:45:19.645Z,96341.03
2023-01-11T04:47:47.176Z,96338.75
2023-01-11T04:50:14.715Z,96336.53
2023-01-11T04:52:42.245Z,96331.31
2023-01-11T04:55:10.382Z,96320.91
2023-01-11T04:57:39.242Z,96323.88
2023-01-11T05:00:10.679Z,96326.03
2023-01-11T05:02:38.242Z,96331.53
2023-01-11T05:05:06.837Z,96327.50
2023-01-11T05:07:34.511Z,96330.63
2023-01-11T05:10:02.814Z,96328.81
2023-01-11T05:12:30.300Z,96326.53
2023-01-11T05:14:59.216Z,96323.78
2023-01-11T05:17:26.735Z,96312.81
2023-01-11T05:19:54.234Z,96316.66
2023-01-11T05:22:21.725Z,96320.69
2023-01-11T05:24:49.234Z,96325.34
2023-01-11T05:27:16.704Z,96322.75
2023-01-11T05:29:45.010Z,96326.53
2023-01-11T05:32:14.028Z,96328.47
2023-01-11T05:34:41.519Z,96327.25
2023-01-11T05:37:09.019Z,96318.41
2023-01-11T05:39:36.525Z,96322.22
2023-01-11T05:42:04.103Z,96322.22
2023-01-11T05:44:48.953Z,96326.63
2023-01-11T05:47:18.815Z,96326.19
2023-01-11T05:49:46.325Z,96329.88
2023-01-11T05:52:13.804Z,96323.31
2023-01-11T05:54:41.291Z,96314.59
2023-01-11T05:57:11.501Z,96314.38
2023-01-11T05:59:38.985Z,96320.81
2023-01-11T06:02:06.604Z,96326.31
2023-01-11T06:04:35.501Z,96314.03
2023-01-11T06:07:03.100Z,96309.50
2023-01-11T06:09:30.653Z,96300.41
2023-01-11T06:11:58.133Z,96309.34
2023-01-11T06:14:25.619Z,96307.94
2023-01-11T06:16:53.179Z,96303.66
2023-01-11T06:19:20.702Z,96310.44
2023-01-11T06:21:49.506Z,96306.50
2023-01-11T06:24:17.215Z,96294.22
2023-01-11T06:26:44.694Z,96289.09
2023-01-11T06:29:12.652Z,96283.38
2023-01-11T06:31:40.240Z,96283.28
2023-01-11T06:34:07.728Z,96280.16
2023-01-11T06:36:37.806Z,96287.78
2023-01-11T06:39:06.851Z,96282.66
2023-01-11T06:41:34.335Z,96288.63
2023-01-11T06:44:01.829Z,96283.38
2023-01-11T06:46:29.446Z,96273.13
2023-01-11T06:48:56.967Z,96281.56
2023-01-11T06:51:24.449Z,96275.63
2023-01-11T06:53:51.917Z,96283.84
2023-01-11T06:56:20.739Z,96270.97
2023-01-11T06:58:48.730Z,96289.56
2023-01-11T07:01:17.536Z,96280.75
2023-01-11T07:03:45.439Z,96284.31
2023-01-11T07:06:13.776Z,96281.13
2023-01-11T07:08:42.385Z,96284.19
2023-01-11T07:11:10.203Z,96276.44
2023-01-11T07:13:39.114Z,96285.25
2023-01-11T07:16:06.964Z,96297.06
2023-01-11T07:18:34.505Z,96288.03
2023-01-11T07:21:02.370Z,96293.16
2023-01-11T07:23:29.918Z,96289.59
2023-01-11T07:25:57.419Z,96286.84
2023-01-11T07:28:24.940Z,96280.03
2023-01-11T07:30:58.681Z,96284.00
2023-01-11T07:33:26.874Z,96284.69
2023-01-11T07:35:54.907Z,96289.34
2023-01-11T07:38:22.597Z,96276.81
2023-01-11T07:40:50.083Z,96281.47
2023-01-11T07:43:18.912Z,96289.06
2023-01-11T07:45:49.210Z,96295.72
2023-01-11T07:48:21.417Z,96281.34
2023-01-11T07:50:49.589Z,96288.25
2023-01-11T07:53:18.838Z,96283.44
2023-01-11T07:55:47.108Z,96291.31
2023-01-11T07:58:15.862Z,96291.03
2023-01-11T08:00:43.655Z,96293.38
2023-01-11T08:03:11.511Z,96294.59
2023-01-11T08:05:40.637Z,96291.66
2023-01-11T08:08:08.652Z,96288.47
2023-01-11T08:10:36.189Z,96279.88
2023-01-11T08:13:21.790Z,96275.59
2023-01-11T08:15:49.296Z,96285.94
2023-01-11T08:18:17.170Z,96287.28
2023-01-11T08:20:47.525Z,96277.34
2023-01-11T08:23:15.017Z,96282.03
2023-01-11T08:25:42.559Z,96266.34
2023-01-11T08:28:11.591Z,96275.16
2023-01-11T08:30:39.393Z,96268.78
2023-01-11T08:33:06.986Z,96265.22
2023-01-11T08:35:39.250Z,96269.06
2023-01-11T08:38:08.182Z,96276.56
2023-01-11T08:40:35.955Z,96267.16
2023-01-11T08:43:03.819Z,96270.47
2023-01-11T08:45:31.376Z,96267.63
2023-01-11T08:48:00.339Z,96263.09
2023-01-11T08:50:28.113Z,96262.03
2023-01-11T08:52:55.624Z,96264.06
2023-01-11T08:55:24.440Z,96257.50
2023-01-11T08:57:51.954Z,96257.94
2023-01-11T09:00:20.887Z,96266.44
2023-01-11T09:02:48.384Z,96262.91
2023-01-11T09:05:18.169Z,96261.59
2023-01-11T09:07:46.042Z,96257.63
2023-01-11T09:10:13.562Z,96262.50
2023-01-11T09:12:42.393Z,96255.75
2023-01-11T09:15:10.718Z,96260.00
2023-01-11T09:17:38.297Z,96249.72
2023-01-11T09:20:06.910Z,96255.72
2023-01-11T09:22:34.830Z,96249.25
2023-01-11T09:25:02.594Z,96258.88
2023-01-11T09:27:30.087Z,96255.25
2023-01-11T09:29:58.931Z,96250.00
2023-01-11T09:32:26.402Z,96255.25
2023-01-11T09:34:57.841Z,96262.38
2023-01-11T09:37:25.460Z,96262.94
2023-01-11T09:39:53.055Z,96259.72
2023-01-11T09:42:32.337Z,96259.44
2023-01-11T09:45:08.894Z,96252.66
2023-01-11T09:47:40.935Z,96249.53
2023-01-11T09:50:14.518Z,96253.88
2023-01-11T09:52:45.290Z,96252.72
2023-01-11T09:55:19.842Z,96250.72
2023-01-11T09:57:55.632Z,96234.69
2023-01-11T10:00:33.550Z,96231.09
2023-01-11T10:03:23.521Z,96231.88
2023-01-11T10:06:00.180Z,96232.63
2023-01-11T10:18:25.379Z,96229.16
2023-01-11T10:18:26.162Z,96228.38
2023-01-11T10:20:35.424Z,96220.88
2023-01-11T10:23:09.845Z,96205.28
2023-01-11T10:25:46.412Z,96210.41
2023-01-11T10:28:22.951Z,96203.41
2023-01-11T10:31:08.025Z,96202.91
2023-01-11T10:34:09.156Z,96184.63
2023-01-11T10:37:05.626Z,96191.03
2023-01-11T10:39:59.100Z,96195.19
2023-01-11T10:42:29.666Z,96188.63
2023-01-11T10:45:03.653Z,96178.13
2023-01-11T10:47:39.105Z,96191.19
2023-01-11T10:50:18.879Z,96177.03
2023-01-11T10:52:53.603Z,96172.84
2023-01-11T10:55:28.369Z,96168.09
2023-01-11T10:58:06.860Z,96167.44
2023-01-11T11:00:44.401Z,96171.16
2023-01-11T11:03:38.926Z,96158.38
2023-01-11T11:06:15.579Z,96162.31
2023-01-11T11:08:49.600Z,96156.38
2023-01-11T11:11:22.539Z,96160.13
2023-01-11T11:13:59.532Z,96149.81
2023-01-11T11:16:50.703Z,96126.03
2023-01-11T11:19:22.917Z,96122.38
2023-01-11T11:21:52.344Z,96123.13
2023-01-11T11:24:27.727Z,96122.53
2023-01-11T11:27:04.368Z,96111.25
2023-01-11T11:29:32.047Z,96113.63
2023-01-11T11:32:00.956Z,96105.84
2023-01-11T11:34:30.757Z,96114.13
2023-01-11T11:37:01.762Z,96100.44
2023-01-11T11:39:31.072Z,96095.66
2023-01-11T11:42:06.538Z,96093.31
2023-01-11T11:44:34.499Z,96093.63
2023-01-11T11:47:03.552Z,96081.38
2023-01-11T11:49:32.707Z,96083.78
2023-01-11T11:52:03.602Z,96082.00
2023-01-11T11:54:34.808Z,96076.47
2023-01-11T11:57:16.457Z,96082.03
2023-01-11T11:59:47.634Z,96087.16
2023-01-11T12:02:24.532Z,96080.94
2023-01-11T12:04:52.952Z,96081.34
2023-01-11T12:07:25.132Z,96079.75
2023-01-11T12:10:00.761Z,96088.03
2023-01-11T12:12:29.735Z,96084.25
2023-01-11T12:15:17.159Z,96079.38
2023-01-11T12:17:44.669Z,96080.63
2023-01-11T12:20:28.233Z,96075.44
2023-01-11T12:23:15.165Z,96070.53
2023-01-11T12:25:52.386Z,96077.56
2023-01-11T12:28:31.678Z,96065.34
2023-01-11T12:31:07.267Z,96071.50
2023-01-11T12:33:44.428Z,96063.59
2023-01-11T12:36:21.843Z,96073.03
2023-01-11T12:39:02.734Z,96070.19
2023-01-11T12:41:52.702Z,96063.28
2023-01-11T12:44:33.940Z,96068.91
2023-01-11T12:47:20.559Z,96072.28
2023-01-11T12:49:58.769Z,96064.81
2023-01-11T12:52:50.655Z,96070.03
2023-01-11T12:55:31.575Z,96065.28
2023-01-11T12:58:08.979Z,96064.38
2023-01-11T13:00:56.699Z,96057.06
2023-01-11T13:04:04.845Z,96054.03
2023-01-11T13:06:40.762Z,96048.97
2023-01-11T13:09:17.787Z,96043.13
2023-01-11T13:11:58.398Z,96036.47
2023-01-11T13:14:52.778Z,96035.72
2023-01-11T13:17:29.011Z,96044.44
2023-01-11T13:20:09.497Z,96040.97
2023-01-11T13:22:41.593Z,96041.53
2023-01-11T13:25:17.634Z,96037.66
2023-01-11T13:27:48.013Z,96047.56
2023-01-11T13:30:17.799Z,96053.31
2023-01-11T13:32:51.205Z,96046.34
2023-01-11T13:35:21.402Z,96039.94
2023-01-11T13:37:55.827Z,96048.63
2023-01-11T13:40:27.143Z,96048.25
2023-01-11T13:43:00.345Z,96046.44
2023-01-11T13:45:31.231Z,96050.63
2023-01-11T13:48:07.076Z,96052.88
2023-01-11T13:50:40.670Z,96048.50
2023-01-11T13:53:16.607Z,96041.56
2023-01-11T13:55:55.030Z,96050.19
2023-01-11T13:58:29.430Z,96046.69
2023-01-11T14:01:02.733Z,96043.53
2023-01-11T14:03:34.734Z,96053.31
2023-01-11T14:06:18.947Z,96051.72
2023-01-11T14:09:10.225Z,96053.41
2023-01-11T14:11:45.727Z,96045.28
2023-01-11T14:14:29.647Z,96052.41
2023-01-11T14:17:09.076Z,96047.94
2023-01-11T14:19:44.475Z,96046.25
2023-01-11T14:22:21.975Z,96052.31
2023-01-11T14:24:57.408Z,96051.34
2023-01-11T14:27:56.482Z,96049.91
2023-01-11T14:30:40.277Z,96055.28
2023-01-11T14:33:56.981Z,96053.13
2023-01-11T14:36:49.852Z,96059.97
2023-01-11T14:39:54.883Z,96055.38
2023-01-11T14:43:01.622Z,96055.47
2023-01-11T14:45:55.129Z,96057.34
2023-01-11T14:48:30.925Z,96057.16
2023-01-11T14:51:30.685Z,96064.47
2023-01-11T14:54:06.921Z,96062.13
2023-01-11T14:56:49.009Z,96066.91
2023-01-11T14:59:34.743Z,96065.25
2023-01-11T15:02:28.865Z,96050.31
2023-01-11T15:05:34.587Z,96054.88
2023-01-11T15:08:25.095Z,96056.06
2023-01-11T15:10:58.299Z,96054.75
2023-01-11T15:13:28.927Z,96058.72
2023-01-11T15:16:27.170Z,96052.06
2023-01-11T15:18:56.772Z,96047.66
2023-01-11T15:21:26.956Z,96052.16
2023-01-11T15:23:58.576Z,96050.50
2023-01-11T15:26:27.875Z,96059.47
2023-01-11T15:28:57.226Z,96066.09
2023-01-11T15:31:34.497Z,96045.16
2023-01-11T15:34:17.573Z,96054.91
2023-01-11T15:37:05.431Z,96053.16
2023-01-11T15:39:41.199Z,96068.59
2023-01-11T15:42:37.717Z,96058.88
2023-01-11T15:46:01.264Z,96066.72
2023-01-11T15:48:39.843Z,96066.91
2023-01-11T15:51:26.925Z,96063.38
2023-01-11T15:54:15.432Z,96071.34
2023-01-11T15:57:33.801Z,96066.00
2023-01-11T16:00:23.635Z,96071.28
2023-01-11T16:03:18.359Z,96082.59
2023-01-11T16:06:12.024Z,96085.16
2023-01-11T16:08:51.209Z,96088.56
2023-01-11T16:11:28.433Z,96101.50
2023-01-11T16:14:13.029Z,96101.69
2023-01-11T16:16:43.810Z,96101.16
2023-01-11T16:19:17.054Z,96122.31
2023-01-11T16:21:49.571Z,96117.44
2023-01-11T16:24:20.918Z,96130.31
2023-01-11T16:26:53.577Z,96139.28
2023-01-11T16:29:24.319Z,96136.06
2023-01-11T16:31:53.665Z,96138.84
2023-01-11T16:34:21.236Z,96142.97
2023-01-11T16:36:49.301Z,96146.31
2023-01-11T16:39:22.631Z,96151.91
2023-01-11T16:41:55.953Z,96138.09
2023-01-11T16:44:34.403Z,96146.53
2023-01-11T16:47:08.205Z,96151.53
2023-01-11T16:49:35.770Z,96141.91
2023-01-11T16:52:47.026Z,96150.09
2023-01-11T16:55:21.928Z,96161.13
2023-01-11T16:57:54.007Z,96163.97
2023-01-11T17:00:27.409Z,96158.91
2023-01-11T17:03:02.743Z,96156.72
2023-01-11T17:05:30.244Z,96160.50
2023-01-11T17:07:57.728Z,96167.03
2023-01-11T17:10:28.734Z,96167.75
2023-01-11T17:13:46.175Z,96163.56
2023-01-11T17:16:15.915Z,96172.47
2023-01-11T17:18:44.535Z,96170.13
2023-01-11T17:21:19.427Z,96172.97
2023-01-11T17:23:48.284Z,96174.00
2023-01-11T17:26:21.927Z,96185.13
2023-01-11T17:28:52.657Z,96178.41
2023-01-11T17:31:24.082Z,96194.66
2023-01-11T17:34:01.277Z,96200.25
2023-01-11T17:36:29.672Z,96198.75
2023-01-11T17:38:58.899Z,96202.13
2023-01-11T17:41:46.966Z,96215.03
2023-01-11T17:44:35.831Z,96223.63
2023-01-11T17:47:07.268Z,96219.16
2023-01-11T17:49:36.387Z,96222.41
2023-01-11T17:52:20.469Z,96219.22
2023-01-11T17:54:48.245Z,96224.63
2023-01-11T17:57:18.795Z,96230.81
2023-01-11T17:59:46.267Z,96230.13
2023-01-11T18:02:15.099Z,96228.16
2023-01-11T18:04:43.660Z,96224.50
2023-01-11T18:07:17.666Z,96227.00
2023-01-11T18:09:47.848Z,96233.59
2023-01-11T18:12:20.787Z,96243.13
2023-01-11T18:14:52.337Z,96247.50
2023-01-11T18:17:36.579Z,96246.91
2023-01-11T18:20:25.678Z,96250.66
2023-01-11T18:23:03.233Z,96248.47
2023-01-11T18:25:34.507Z,96252.25
2023-01-11T18:28:30.805Z,96260.84
2023-01-11T18:31:01.841Z,96257.06
2023-01-11T18:33:33.733Z,96266.44
2023-01-11T18:36:03.200Z,96267.06
2023-01-11T18:38:32.625Z,96259.50
2023-01-11T18:41:24.777Z,96256.47
2023-01-11T18:43:53.851Z,96266.16
2023-01-11T18:46:21.448Z,96271.88
2023-01-11T18:48:49.018Z,96278.28
2023-01-11T18:51:18.927Z,96287.66
2023-01-11T18:53:46.432Z,96278.59
2023-01-11T18:56:16.179Z,96284.66
2023-01-11T18:58:43.734Z,96286.25
2023-01-11T19:01:12.801Z,96287.00
2023-01-11T19:03:41.100Z,96294.28
2023-01-11T19:06:12.783Z,96292.97
2023-01-11T19:08:40.464Z,96299.16
2023-01-11T19:11:08.028Z,96293.03
2023-01-11T19:13:35.563Z,96302.94
2023-01-11T19:16:03.128Z,96307.31
2023-01-11T19:18:47.959Z,96316.00
2023-01-11T19:21:15.813Z,96316.44
2023-01-11T19:23:43.363Z,96327.00
2023-01-11T19:26:10.893Z,96320.44
2023-01-11T19:28:38.414Z,96323.16
2023-01-11T19:31:07.420Z,96329.78
2023-01-11T19:33:35.077Z,96337.75
2023-01-11T19:36:08.212Z,96341.69
2023-01-11T19:38:36.166Z,96349.91
2023-01-11T19:41:05.363Z,96350.75
2023-01-11T19:43:32.905Z,96352.66
2023-01-11T19:46:01.991Z,96358.75
2023-01-11T19:48:30.836Z,96354.91
2023-01-11T19:51:02.066Z,96361.47
2023-01-11T19:53:31.823Z,96363.84
2023-01-11T19:56:01.633Z,96367.38
2023-01-11T19:58:29.173Z,96365.13
2023-01-11T20:00:56.773Z,96375.06
2023-01-11T20:03:24.326Z,96383.88
2023-01-11T20:05:51.843Z,96382.59
2023-01-11T20:08:19.385Z,96371.72
2023-01-11T20:10:50.025Z,96387.28
2023-01-11T20:13:17.555Z,96382.03
2023-01-11T20:15:45.150Z,96377.31
2023-01-11T20:18:12.658Z,96372.31
2023-01-11T20:20:40.177Z,96378.25
2023-01-11T20:23:07.673Z,96373.47
2023-01-11T20:25:35.160Z,96374.44
2023-01-11T20:28:04.105Z,96381.06
2023-01-11T20:30:31.583Z,96369.97
2023-01-11T20:32:59.089Z,96373.50
2023-01-11T20:35:26.578Z,96378.38
2023-01-11T20:37:54.106Z,96397.19
2023-01-11T20:40:21.598Z,96392.25
2023-01-11T20:42:49.105Z,96385.63
2023-01-11T20:45:18.003Z,96388.34
2023-01-11T20:47:46.319Z,96399.09
2023-01-11T20:50:13.800Z,96391.50
2023-01-11T20:52:41.343Z,96404.50
2023-01-11T20:55:10.051Z,96399.41
2023-01-11T20:57:37.609Z,96402.13
2023-01-11T21:00:07.517Z,96399.03
2023-01-11T21:02:36.465Z,96406.00
2023-01-11T21:05:04.463Z,96408.53
2023-01-11T21:07:32.142Z,96411.94
2023-01-11T21:10:00.044Z,96418.53
2023-01-11T21:12:27.529Z,96414.69
2023-01-11T21:14:55.015Z,96410.41
2023-01-11T21:17:22.493Z,96420.09
2023-01-11T21:19:51.348Z,96426.78
2023-01-11T21:22:18.902Z,96421.19
2023-01-11T21:24:48.260Z,96431.38
2023-01-11T21:27:15.809Z,96430.13
2023-01-11T21:29:43.340Z,96435.22
2023-01-11T21:32:10.826Z,96451.94
2023-01-11T21:34:38.346Z,96453.34
2023-01-11T21:37:07.169Z,96444.19
2023-01-11T21:39:34.657Z,96458.31
2023-01-11T21:42:03.496Z,96446.09
2023-01-11T21:44:33.480Z,96452.53
2023-01-11T21:47:01.954Z,96455.13
2023-01-11T21:49:29.528Z,96448.31
2023-01-11T21:51:57.105Z,96457.69
2023-01-11T21:54:26.261Z,96456.78
2023-01-11T21:56:53.805Z,96456.50
2023-01-11T21:59:21.542Z,96462.09
2023-01-11T22:01:49.732Z,96463.50
2023-01-11T22:04:19.466Z,96481.84
2023-01-11T22:06:51.381Z,96478.66
2023-01-11T22:09:19.913Z,96481.16
2023-01-11T22:11:49.551Z,96475.72
2023-01-11T22:14:17.061Z,96480.03
2023-01-11T22:16:44.570Z,96481.00
2023-01-11T22:19:12.576Z,96484.50
2023-01-11T22:21:40.122Z,96485.19
2023-01-11T22:24:10.468Z,96482.00
2023-01-11T22:26:38.913Z,96480.19
2023-01-11T22:29:18.407Z,96479.91
2023-01-11T22:31:47.793Z,96489.91
2023-01-11T22:34:15.705Z,96483.94
2023-01-11T22:36:43.754Z,96484.22
2023-01-11T22:39:11.906Z,96482.66
2023-01-11T22:41:40.462Z,96488.22
2023-01-11T22:44:10.127Z,96495.63
2023-01-11T22:46:37.709Z,96493.81
2023-01-11T22:49:05.955Z,96496.56
2023-01-11T22:51:33.625Z,96494.47
2023-01-11T22:54:01.131Z,96508.44
2023-01-11T22:56:29.388Z,96511.38
2023-01-11T22:58:58.178Z,96529.22
2023-01-11T23:01:28.381Z,96519.50
2023-01-11T23:03:56.794Z,96528.53
2023-01-11T23:06:26.032Z,96541.78
2023-01-11T23:08:54.411Z,96531.19
2023-01-11T23:11:41.663Z,96535.31
2023-01-11T23:14:11.374Z,96530.66
2023-01-11T23:16:41.172Z,96526.34
2023-01-11T23:19:09.843Z,96523.00
2023-01-11T23:21:40.558Z,96529.22
2023-01-11T23:24:09.160Z,96525.63
2023-01-11T23:26:36.746Z,96535.78
2023-01-11T23:29:05.384Z,96543.41
2023-01-11T23:31:33.351Z,96559.34
2023-01-11T23:34:04.136Z,96553.34
2023-01-11T23:36:33.158Z,96541.50
2023-01-11T23:39:00.990Z,96540.75
2023-01-11T23:41:46.302Z,96535.66
2023-01-11T23:44:15.620Z,96541.59
2023-01-11T23:47:00.879Z,96542.66
2023-01-11T23:49:30.856Z,96534.94
2023-01-11T23:51:58.740Z,96541.44
2023-01-11T23:54:27.914Z,96535.13
2023-01-11T23:56:55.503Z,96536.13
2023-01-11T23:59:23.283Z,96536.91
